createdAt,value
2024-01-16T00:02:09.492Z,1.40
2024-01-16T00:04:38.728Z,1.40
2024-01-16T00:07:06.086Z,1.40
2024-01-16T00:09:36.495Z,1.30
2024-01-16T00:12:05.278Z,1.30
2024-01-16T00:14:35.633Z,1.30
2024-01-16T00:17:02.829Z,1.20
2024-01-16T00:19:30.330Z,1.20
2024-01-16T00:21:57.673Z,1.20
2024-01-16T00:24:24.745Z,1.20
2024-01-16T00:26:52.259Z,1.20
2024-01-16T00:29:19.383Z,1.20
2024-01-16T00:31:46.496Z,1.20
2024-01-16T00:34:14.029Z,1.20
2024-01-16T00:36:41.074Z,1.10
2024-01-16T00:39:09.216Z,1.10
2024-01-16T00:41:36.236Z,1.10
2024-01-16T00:44:04.287Z,1.10
2024-01-16T00:46:31.465Z,1.10
2024-01-16T00:48:58.552Z,1.10
2024-01-16T00:51:25.712Z,1.10
2024-01-16T00:53:52.779Z,1.00
2024-01-16T00:56:20.641Z,1.00
2024-01-16T00:58:47.721Z,1.00
2024-01-16T01:01:15.036Z,1.00
2024-01-16T01:03:42.108Z,0.90
2024-01-16T01:06:09.811Z,1.00
2024-01-16T01:08:36.922Z,1.00
2024-01-16T01:11:04.440Z,1.00
2024-01-16T01:13:31.510Z,0.90
2024-01-16T01:15:58.651Z,0.90
2024-01-16T01:18:25.904Z,0.90
2024-01-16T01:20:53.049Z,0.90
2024-01-16T01:23:20.098Z,0.90
2024-01-16T01:25:47.160Z,0.90
2024-01-16T01:28:14.135Z,0.80
2024-01-16T01:30:41.348Z,0.90
2024-01-16T01:33:08.516Z,0.90
2024-01-16T01:35:35.778Z,0.90
2024-01-16T01:38:03.048Z,0.80
2024-01-16T01:40:30.024Z,0.80
2024-01-16T01:42:57.020Z,0.80
2024-01-16T01:45:24.060Z,0.70
2024-01-16T01:47:51.857Z,0.70
2024-01-16T01:50:19.679Z,0.70
2024-01-16T01:52:46.935Z,0.70
2024-01-16T01:55:15.172Z,0.70
2024-01-16T01:57:44.350Z,0.60
2024-01-16T02:00:12.385Z,0.60
2024-01-16T02:02:43.488Z,0.50
2024-01-16T02:05:11.472Z,0.50
2024-01-16T02:07:39.760Z,0.50
2024-01-16T02:10:07.516Z,0.50
2024-01-16T02:12:35.115Z,0.40
2024-01-16T02:15:02.249Z,0.40
2024-01-16T02:17:29.329Z,0.40
2024-01-16T02:19:56.430Z,0.40
2024-01-16T02:22:26.825Z,0.40
2024-01-16T02:24:53.837Z,0.40
2024-01-16T02:27:20.824Z,0.40
2024-01-16T02:29:47.860Z,0.40
2024-01-16T02:32:16.606Z,0.40
2024-01-16T02:34:44.702Z,0.40
2024-01-16T02:37:12.758Z,0.40
2024-01-16T02:39:41.197Z,0.40
2024-01-16T02:42:08.545Z,0.30
2024-01-16T02:44:35.656Z,0.30
2024-01-16T02:47:03.817Z,0.30
2024-01-16T02:49:33.385Z,0.30
2024-01-16T02:52:00.563Z,0.30
2024-01-16T02:54:27.503Z,0.30
2024-01-16T02:56:54.543Z,0.30
2024-01-16T02:59:22.061Z,0.20
2024-01-16T03:01:49.066Z,0.10
2024-01-16T03:04:16.090Z,0.10
2024-01-16T03:06:43.402Z,0.10
2024-01-16T03:09:10.473Z,0.10
2024-01-16T03:11:37.566Z,0.00
2024-01-16T03:14:06.077Z,0.00
2024-01-16T03:16:33.484Z,0.00
2024-01-16T03:19:00.734Z,0.00
2024-01-16T03:21:27.805Z,0.00
2024-01-16T03:23:56.015Z,0.00
2024-01-16T03:26:23.499Z,0.00
2024-01-16T03:28:50.578Z,0.00
2024-01-16T03:31:18.603Z,0.00
2024-01-16T03:33:45.821Z,0.00
2024-01-16T03:36:14.385Z,0.00
2024-01-16T03:38:41.840Z,0.00
2024-01-16T03:41:09.372Z,0.00
2024-01-16T03:43:36.734Z,0.00
2024-01-16T03:46:04.012Z,0.00
2024-01-16T03:48:31.161Z,-0.10
2024-01-16T03:50:58.608Z,-0.10
2024-01-16T03:53:25.809Z,-0.10
2024-01-16T03:55:52.950Z,-0.10
2024-01-16T03:58:20.281Z,-0.20
2024-01-16T04:00:47.948Z,-0.10
2024-01-16T04:03:14.985Z,-0.10
2024-01-16T04:05:42.095Z,-0.10
2024-01-16T04:08:09.309Z,-0.10
2024-01-16T04:10:36.706Z,-0.20
2024-01-16T04:13:04.389Z,-0.10
2024-01-16T04:15:31.498Z,-0.20
2024-01-16T04:17:58.600Z,-0.20
2024-01-16T04:20:25.812Z,-0.20
2024-01-16T04:22:53.042Z,-0.10
2024-01-16T04:25:20.217Z,-0.10
2024-01-16T04:27:47.348Z,-0.10
2024-01-16T04:30:14.828Z,-0.10
2024-01-16T04:32:43.608Z,0.00
2024-01-16T04:35:10.857Z,0.00
2024-01-16T04:37:38.033Z,0.00
2024-01-16T04:40:06.784Z,0.00
2024-01-16T04:42:35.060Z,0.00
2024-01-16T04:45:02.401Z,0.00
2024-01-16T04:47:29.553Z,0.00
2024-01-16T04:49:57.222Z,-0.10
2024-01-16T04:52:24.613Z,-0.10
2024-01-16T04:54:51.598Z,-0.10
2024-01-16T04:57:18.612Z,-0.20
2024-01-16T04:59:45.687Z,-0.20
2024-01-16T05:02:13.139Z,-0.20
2024-01-16T05:04:40.216Z,-0.20
2024-01-16T05:07:07.372Z,-0.30
2024-01-16T05:09:34.350Z,-0.40
2024-01-16T05:12:02.084Z,-0.40
2024-01-16T05:14:29.027Z,-0.40
2024-01-16T05:16:56.137Z,-0.40
2024-01-16T05:19:23.729Z,-0.30
2024-01-16T05:21:50.729Z,-0.40
2024-01-16T05:24:17.645Z,-0.40
2024-01-16T05:26:44.623Z,-0.40
2024-01-16T05:29:13.132Z,-0.40
2024-01-16T05:31:43.517Z,-0.40
2024-01-16T05:34:11.237Z,-0.40
2024-01-16T05:36:38.526Z,-0.40
2024-01-16T05:39:06.039Z,-0.40
2024-01-16T05:41:36.850Z,-0.40
2024-01-16T05:44:06.942Z,-0.40
2024-01-16T05:46:34.651Z,-0.50
2024-01-16T05:49:01.989Z,-0.50
2024-01-16T05:51:30.638Z,-0.60
2024-01-16T05:53:58.001Z,-0.60
2024-01-16T05:56:25.276Z,-0.60
2024-01-16T05:58:53.463Z,-0.70
2024-01-16T06:01:20.713Z,-0.70
2024-01-16T06:03:50.332Z,-0.70
2024-01-16T06:06:18.067Z,-0.70
2024-01-16T06:08:45.385Z,-0.70
2024-01-16T06:11:14.590Z,-0.70
2024-01-16T06:13:45.369Z,-0.70
2024-01-16T06:16:12.431Z,-0.70
2024-01-16T06:18:39.493Z,-0.80
2024-01-16T06:21:06.555Z,-0.80
2024-01-16T06:23:33.677Z,-0.80
2024-01-16T06:26:01.688Z,-0.80
2024-01-16T06:28:28.743Z,-0.80
2024-01-16T06:30:56.400Z,-0.80
2024-01-16T06:33:23.829Z,-0.80
2024-01-16T06:35:54.097Z,-0.90
2024-01-16T06:38:21.601Z,-0.90
2024-01-16T06:40:48.846Z,-0.90
2024-01-16T06:43:17.268Z,-0.90
2024-01-16T06:45:44.763Z,-1.00
2024-01-16T06:48:12.034Z,-1.10
2024-01-16T06:50:39.493Z,-1.20
2024-01-16T06:53:06.520Z,-1.20
2024-01-16T06:55:36.532Z,-1.20
2024-01-16T06:58:03.768Z,-1.10
2024-01-16T07:00:30.947Z,-1.10
2024-01-16T07:02:58.020Z,-1.10
2024-01-16T07:05:25.161Z,-1.10
2024-01-16T07:07:52.383Z,-1.10
2024-01-16T07:10:19.538Z,-1.10
2024-01-16T07:12:47.145Z,-1.10
2024-01-16T07:15:14.678Z,-1.10
2024-01-16T07:17:42.622Z,-1.10
2024-01-16T07:20:10.410Z,-1.10
2024-01-16T07:22:40.814Z,-1.10
2024-01-16T07:25:08.827Z,-1.10
2024-01-16T07:27:35.830Z,-1.10
2024-01-16T07:30:05.948Z,-1.10
2024-01-16T07:32:33.568Z,-1.10
2024-01-16T07:35:00.954Z,-1.00
2024-01-16T07:37:28.972Z,-1.00
2024-01-16T07:39:56.043Z,-1.00
2024-01-16T07:42:23.169Z,-1.00
2024-01-16T07:44:50.350Z,-0.90
2024-01-16T07:47:17.368Z,-0.90
2024-01-16T07:49:44.878Z,-0.90
2024-01-16T07:52:13.637Z,-0.90
2024-01-16T07:54:40.680Z,-0.90
2024-01-16T07:57:07.697Z,-0.90
2024-01-16T07:59:34.790Z,-0.90
2024-01-16T08:02:01.913Z,-0.90
2024-01-16T08:04:29.229Z,-0.80
2024-01-16T08:06:56.382Z,-0.80
2024-01-16T08:09:23.567Z,-0.80
2024-01-16T08:11:50.706Z,-0.80
2024-01-16T08:14:17.721Z,-0.70
2024-01-16T08:16:44.691Z,-0.70
2024-01-16T08:19:11.815Z,-0.70
2024-01-16T08:21:38.999Z,-0.70
2024-01-16T08:24:06.166Z,-0.60
2024-01-16T08:26:33.318Z,-0.60
2024-01-16T08:29:00.322Z,-0.60
2024-01-16T08:31:27.350Z,-0.60
2024-01-16T08:33:57.421Z,-0.60
2024-01-16T08:36:24.654Z,-0.50
2024-01-16T08:38:51.864Z,-0.50
2024-01-16T08:41:19.296Z,-0.50
2024-01-16T08:43:46.346Z,-0.50
2024-01-16T08:46:16.451Z,-0.50
2024-01-16T08:48:43.566Z,-0.50
2024-01-16T08:51:16.362Z,-0.50
2024-01-16T08:53:43.606Z,-0.50
2024-01-16T08:56:11.206Z,-0.50
2024-01-16T08:58:39.514Z,-0.40
2024-01-16T09:01:08.063Z,-0.30
2024-01-16T09:03:35.559Z,-0.30
2024-01-16T09:06:03.097Z,-0.20
2024-01-16T09:08:30.632Z,-0.10
2024-01-16T09:10:58.123Z,-0.10
2024-01-16T09:13:25.169Z,0.00
2024-01-16T09:15:52.254Z,0.00
2024-01-16T09:18:19.515Z,0.00
2024-01-16T09:20:46.935Z,0.10
2024-01-16T09:23:14.267Z,0.10
2024-01-16T09:25:41.401Z,0.20
2024-01-16T09:28:08.449Z,0.20
2024-01-16T09:30:35.511Z,0.30
2024-01-16T09:33:04.497Z,0.40
2024-01-16T09:35:31.597Z,0.40
2024-01-16T09:37:58.575Z,0.50
2024-01-16T09:40:25.552Z,0.50
2024-01-16T09:42:52.873Z,0.50
2024-01-16T09:45:23.099Z,0.60
2024-01-16T09:47:52.797Z,0.60
2024-01-16T09:50:21.038Z,0.50
2024-01-16T09:52:48.871Z,0.60
2024-01-16T09:55:19.335Z,0.70
2024-01-16T09:57:47.713Z,0.90
2024-01-16T10:00:16.722Z,1.10
2024-01-16T10:02:44.618Z,1.20
2024-01-16T10:05:13.560Z,1.40
2024-01-16T10:07:42.135Z,1.50
2024-01-16T10:10:12.318Z,1.60
2024-01-16T10:12:40.930Z,1.70
2024-01-16T10:15:09.576Z,1.80
2024-01-16T10:17:40.562Z,2.00
2024-01-16T10:20:17.719Z,2.10
2024-01-16T10:22:55.346Z,2.10
2024-01-16T10:25:23.729Z,2.20
2024-01-16T10:28:03.464Z,2.20
2024-01-16T10:30:30.921Z,2.20
2024-01-16T10:33:20.019Z,2.30
2024-01-16T10:35:47.279Z,2.30
2024-01-16T10:38:23.888Z,2.40
2024-01-16T10:41:07.287Z,2.40
2024-01-16T10:43:34.537Z,2.30
2024-01-16T10:46:14.287Z,2.30
2024-01-16T10:48:59.259Z,2.30
2024-01-16T10:51:28.560Z,2.30
2024-01-16T10:54:10.836Z,2.20
2024-01-16T10:56:38.163Z,2.20
2024-01-16T10:59:13.997Z,2.20
2024-01-16T11:01:44.957Z,2.20
2024-01-16T11:04:16.057Z,2.20
2024-01-16T11:06:45.183Z,2.30
2024-01-16T11:09:16.595Z,2.30
2024-01-16T11:11:47.973Z,2.30
2024-01-16T11:14:16.510Z,2.30
2024-01-16T11:16:44.481Z,2.30
2024-01-16T11:19:25.658Z,2.30
2024-01-16T11:22:00.874Z,2.30
2024-01-16T11:24:28.010Z,2.40
2024-01-16T11:26:55.168Z,2.50
2024-01-16T11:29:29.128Z,2.50
2024-01-16T11:32:12.803Z,2.60
2024-01-16T11:34:45.331Z,2.70
2024-01-16T11:37:16.241Z,2.70
2024-01-16T11:39:44.376Z,2.70
2024-01-16T11:42:11.727Z,2.80
2024-01-16T11:44:52.223Z,2.90
2024-01-16T11:47:24.689Z,2.90
2024-01-16T11:50:08.419Z,2.90
2024-01-16T11:52:46.026Z,2.90
2024-01-16T11:55:27.946Z,2.90
2024-01-16T11:58:29.227Z,3.00
2024-01-16T12:00:58.636Z,2.90
2024-01-16T12:03:33.972Z,2.90
2024-01-16T12:06:04.720Z,2.90
2024-01-16T12:08:32.700Z,2.90
2024-01-16T12:11:01.123Z,2.90
2024-01-16T12:13:28.287Z,3.00
2024-01-16T12:16:02.443Z,3.00
2024-01-16T12:18:38.618Z,3.00
2024-01-16T12:21:12.511Z,3.00
2024-01-16T12:23:46.760Z,3.00
2024-01-16T12:26:24.860Z,3.00
2024-01-16T12:28:58.820Z,3.00
2024-01-16T12:31:30.536Z,3.10
2024-01-16T12:34:10.947Z,3.10
2024-01-16T12:36:39.335Z,3.20
2024-01-16T12:39:06.857Z,3.20
2024-01-16T12:41:46.792Z,3.20
2024-01-16T12:44:20.457Z,3.20
2024-01-16T12:46:57.729Z,3.20
2024-01-16T12:49:26.001Z,3.20
2024-01-16T12:52:13.260Z,3.30
2024-01-16T12:54:40.960Z,3.30
2024-01-16T12:57:08.217Z,3.40
2024-01-16T12:59:41.970Z,3.40
2024-01-16T13:02:09.558Z,3.40
2024-01-16T13:04:36.686Z,3.40
2024-01-16T13:07:05.316Z,3.40
2024-01-16T13:09:33.156Z,3.40
2024-01-16T13:12:01.818Z,3.50
2024-01-16T13:14:30.012Z,3.50
2024-01-16T13:16:57.669Z,3.60
2024-01-16T13:19:25.519Z,3.60
2024-01-16T13:21:53.271Z,3.60
2024-01-16T13:24:23.243Z,3.70
2024-01-16T13:26:51.370Z,3.70
2024-01-16T13:29:18.573Z,3.70
2024-01-16T13:31:45.901Z,3.70
2024-01-16T13:34:13.638Z,3.70
2024-01-16T13:36:54.737Z,3.70
2024-01-16T13:39:33.446Z,3.70
2024-01-16T13:42:00.579Z,3.70
2024-01-16T13:44:29.171Z,3.70
2024-01-16T13:47:05.697Z,3.70
2024-01-16T13:49:36.139Z,3.80
2024-01-16T13:52:04.539Z,3.80
2024-01-16T13:54:32.260Z,3.80
2024-01-16T13:57:06.268Z,3.80
2024-01-16T13:59:42.133Z,3.70
2024-01-16T14:02:11.078Z,3.80
2024-01-16T14:04:38.663Z,3.80
2024-01-16T14:09:37.879Z,3.80
2024-01-16T14:12:07.247Z,3.70
2024-01-16T14:14:39.710Z,3.70
2024-01-16T14:17:07.192Z,3.70
2024-01-16T14:19:39.494Z,3.70
2024-01-16T14:22:07.887Z,3.80
2024-01-16T14:24:35.170Z,3.70
2024-01-16T14:27:02.950Z,3.70
2024-01-16T14:29:30.451Z,3.70
2024-01-16T14:31:58.596Z,3.70
2024-01-16T14:34:27.590Z,3.70
2024-01-16T14:36:55.286Z,3.70
2024-01-16T14:39:27.008Z,3.70
2024-01-16T14:41:54.937Z,3.70
2024-01-16T14:44:22.442Z,3.70
2024-01-16T14:46:52.068Z,3.70
2024-01-16T14:49:22.482Z,3.70
2024-01-16T14:51:50.023Z,3.70
2024-01-16T14:54:17.157Z,3.60
2024-01-16T14:56:44.226Z,3.60
2024-01-16T14:59:14.420Z,3.60
2024-01-16T15:01:44.941Z,3.60
2024-01-16T15:04:13.492Z,3.50
2024-01-16T15:06:44.159Z,3.50
2024-01-16T15:09:14.106Z,3.60
2024-01-16T15:11:46.128Z,3.50
2024-01-16T15:14:15.287Z,3.50
2024-01-16T15:16:42.385Z,3.50
2024-01-16T15:19:09.664Z,3.40
2024-01-16T15:21:38.017Z,3.40
2024-01-16T15:24:05.593Z,3.40
2024-01-16T15:26:32.874Z,3.30
2024-01-16T15:29:00.161Z,3.30
2024-01-16T15:31:27.659Z,3.30
2024-01-16T15:33:56.377Z,3.20
2024-01-16T15:36:23.642Z,3.20
2024-01-16T15:38:50.746Z,3.10
2024-01-16T15:41:18.290Z,3.00
2024-01-16T15:43:45.266Z,2.90
2024-01-16T15:46:12.792Z,2.80
2024-01-16T15:48:40.019Z,2.80
2024-01-16T15:51:10.269Z,2.80
2024-01-16T15:53:38.004Z,2.60
2024-01-16T15:56:08.677Z,2.50
2024-01-16T15:58:36.041Z,2.40
2024-01-16T16:01:03.613Z,2.30
2024-01-16T16:03:31.025Z,2.20
2024-01-16T16:05:58.235Z,2.20
2024-01-16T16:08:26.484Z,2.20
2024-01-16T16:10:53.581Z,2.10
2024-01-16T16:13:20.752Z,2.00
2024-01-16T16:15:47.910Z,1.90
2024-01-16T16:18:15.271Z,1.90
2024-01-16T16:20:42.987Z,1.90
2024-01-16T16:23:10.048Z,1.80
2024-01-16T16:25:45.904Z,1.80
2024-01-16T16:28:13.112Z,1.70
2024-01-16T16:30:40.890Z,1.50
2024-01-16T16:33:10.125Z,1.50
2024-01-16T16:35:37.364Z,1.40
2024-01-16T16:38:05.015Z,1.40
2024-01-16T16:40:33.539Z,1.40
2024-01-16T16:43:01.169Z,1.30
2024-01-16T16:45:28.364Z,1.10
2024-01-16T16:47:55.381Z,1.10
2024-01-16T16:50:22.608Z,1.10
2024-01-16T16:52:50.655Z,0.90
2024-01-16T16:55:17.906Z,0.80
2024-01-16T16:57:45.703Z,0.80
2024-01-16T17:00:15.186Z,0.80
2024-01-16T17:02:42.896Z,0.80
2024-01-16T17:05:10.966Z,0.80
2024-01-16T17:07:38.240Z,0.80
2024-01-16T17:10:06.002Z,0.90
2024-01-16T17:12:33.466Z,1.00
2024-01-16T17:15:00.694Z,1.00
2024-01-16T17:17:28.491Z,1.00
2024-01-16T17:19:55.715Z,1.00
2024-01-16T17:22:23.121Z,1.10
2024-01-16T17:24:51.074Z,1.00
2024-01-16T17:27:18.135Z,0.90
2024-01-16T17:29:46.459Z,0.90
2024-01-16T17:32:13.516Z,0.90
2024-01-16T17:34:41.236Z,1.00
2024-01-16T17:37:08.704Z,1.00
2024-01-16T17:39:35.762Z,1.00
2024-01-16T17:42:04.871Z,1.00
2024-01-16T17:44:38.176Z,1.00
2024-01-16T17:47:05.627Z,1.00
2024-01-16T17:49:34.820Z,1.00
2024-01-16T17:52:04.814Z,1.00
2024-01-16T17:54:31.861Z,1.00
2024-01-16T17:56:58.926Z,1.00
2024-01-16T17:59:31.895Z,1.00
2024-01-16T18:01:59.090Z,1.00
2024-01-16T18:04:26.070Z,1.00
2024-01-16T18:06:53.188Z,1.00
2024-01-16T18:09:20.564Z,1.00
2024-01-16T18:11:58.603Z,1.00
2024-01-16T18:14:26.099Z,1.00
2024-01-16T18:16:54.833Z,1.00
2024-01-16T18:19:28.405Z,1.00
2024-01-16T18:21:56.569Z,1.00
2024-01-16T18:24:24.252Z,1.00
2024-01-16T18:26:51.516Z,0.90
2024-01-16T18:29:21.439Z,0.90
2024-01-16T18:31:49.458Z,0.90
2024-01-16T18:34:21.792Z,0.90
2024-01-16T18:36:53.095Z,0.90
2024-01-16T18:39:21.534Z,0.90
2024-01-16T18:41:52.257Z,1.00
2024-01-16T18:44:20.435Z,1.00
2024-01-16T18:46:47.631Z,1.00
2024-01-16T18:49:14.644Z,1.00
2024-01-16T18:51:41.617Z,0.90
2024-01-16T18:54:08.761Z,0.90
2024-01-16T18:56:35.803Z,0.90
2024-01-16T18:59:03.633Z,0.80
2024-01-16T19:01:31.260Z,0.80
2024-01-16T19:03:59.268Z,0.80
2024-01-16T19:06:26.665Z,0.80
2024-01-16T19:08:53.872Z,0.70
2024-01-16T19:11:21.611Z,0.70
2024-01-16T19:13:48.654Z,0.70
2024-01-16T19:16:16.812Z,0.70
2024-01-16T19:18:45.389Z,0.70
2024-01-16T19:21:12.525Z,0.70
2024-01-16T19:23:39.816Z,0.70
2024-01-16T19:26:07.122Z,0.70
2024-01-16T19:28:34.408Z,0.70
2024-01-16T19:31:02.717Z,0.70
2024-01-16T19:33:30.523Z,0.70
2024-01-16T19:36:00.438Z,0.70
2024-01-16T19:38:28.100Z,0.60
2024-01-16T19:40:55.227Z,0.70
2024-01-16T19:43:22.276Z,0.70
2024-01-16T19:45:50.895Z,0.60
2024-01-16T19:48:18.181Z,0.70
2024-01-16T19:50:45.387Z,0.70
2024-01-16T19:53:14.213Z,0.70
2024-01-16T19:55:43.721Z,0.70
2024-01-16T19:58:12.360Z,0.70
2024-01-16T20:00:43.492Z,0.80
2024-01-16T20:03:12.704Z,0.80
2024-01-16T20:05:43.669Z,0.90
2024-01-16T20:08:11.366Z,1.00
2024-01-16T20:10:41.675Z,1.00
2024-01-16T20:13:08.817Z,1.10
2024-01-16T20:15:35.955Z,1.20
2024-01-16T20:18:04.433Z,1.20
2024-01-16T20:20:31.666Z,1.20
2024-01-16T20:22:59.293Z,1.30
2024-01-16T20:25:26.433Z,1.30
2024-01-16T20:27:53.694Z,1.40
2024-01-16T20:30:22.241Z,1.30
2024-01-16T20:32:52.739Z,1.40
2024-01-16T20:35:23.695Z,1.50
2024-01-16T20:37:51.248Z,1.50
2024-01-16T20:40:18.308Z,1.50
2024-01-16T20:42:45.299Z,1.60
2024-01-16T20:45:12.336Z,1.60
2024-01-16T20:47:41.135Z,1.60
2024-01-16T20:50:10.756Z,1.60
2024-01-16T20:52:38.210Z,1.70
2024-01-16T20:55:07.744Z,1.70
2024-01-16T20:57:36.152Z,1.70
2024-01-16T21:00:06.366Z,1.70
2024-01-16T21:02:33.536Z,1.70
2024-01-16T21:05:01.054Z,1.80
2024-01-16T21:07:28.519Z,1.90
2024-01-16T21:09:55.993Z,1.90
2024-01-16T21:12:23.890Z,2.00
2024-01-16T21:14:51.316Z,2.00
2024-01-16T21:17:18.593Z,2.00
2024-01-16T21:19:46.155Z,2.00
2024-01-16T21:22:16.902Z,2.10
2024-01-16T21:24:48.259Z,2.10
2024-01-16T21:27:15.928Z,2.10
2024-01-16T21:29:46.552Z,2.10
2024-01-16T21:32:13.703Z,2.10
2024-01-16T21:34:41.206Z,2.10
2024-01-16T21:37:08.291Z,2.10
2024-01-16T21:39:36.547Z,2.10
2024-01-16T21:42:06.577Z,2.10
2024-01-16T21:44:33.735Z,2.10
2024-01-16T21:47:00.874Z,2.10
2024-01-16T21:49:27.935Z,2.10
2024-01-16T21:51:55.076Z,2.10
2024-01-16T21:54:22.358Z,2.20
2024-01-16T21:56:49.470Z,2.20
2024-01-16T21:59:16.604Z,2.20
2024-01-16T22:01:47.419Z,2.20
2024-01-16T22:04:14.731Z,2.30
2024-01-16T22:06:41.955Z,2.30
2024-01-16T22:09:14.329Z,2.40
2024-01-16T22:11:42.123Z,2.40
2024-01-16T22:14:09.341Z,2.40
2024-01-16T22:16:36.633Z,2.50
2024-01-16T22:19:04.406Z,2.50
2024-01-16T22:21:32.981Z,2.50
2024-01-16T22:24:00.846Z,2.60
2024-01-16T22:26:28.001Z,2.60
2024-01-16T22:28:55.078Z,2.50
2024-01-16T22:31:22.885Z,2.60
2024-01-16T22:33:52.423Z,2.60
2024-01-16T22:36:22.668Z,2.60
2024-01-16T22:38:49.831Z,2.70
2024-01-16T22:41:17.414Z,2.70
2024-01-16T22:43:47.611Z,2.70
2024-01-16T22:46:14.549Z,2.70
2024-01-16T22:48:41.985Z,2.70
2024-01-16T22:51:09.270Z,2.70
2024-01-16T22:53:36.655Z,2.70
2024-01-16T22:56:03.817Z,2.70
2024-01-16T22:58:30.937Z,2.70
2024-01-16T23:01:02.208Z,2.60
2024-01-16T23:03:30.696Z,2.70
2024-01-16T23:05:58.199Z,2.70
2024-01-16T23:08:25.676Z,2.70
2024-01-16T23:10:54.970Z,2.70
2024-01-16T23:13:22.780Z,2.70
2024-01-16T23:15:50.041Z,2.80
2024-01-16T23:18:17.152Z,2.80
2024-01-16T23:20:44.365Z,2.80
2024-01-16T23:23:14.236Z,2.80
2024-01-16T23:25:41.237Z,2.80
2024-01-16T23:28:08.216Z,2.80
2024-01-16T23:30:37.331Z,2.90
2024-01-16T23:33:06.861Z,2.90
2024-01-16T23:35:34.010Z,2.90
2024-01-16T23:38:01.414Z,2.90
2024-01-16T23:40:28.526Z,2.90
2024-01-16T23:42:55.511Z,2.90
2024-01-16T23:45:27.917Z,2.90
2024-01-16T23:48:00.078Z,2.90
2024-01-16T23:50:27.157Z,2.90
2024-01-16T23:52:54.633Z,2.90
2024-01-16T23:55:22.663Z,2.90
2024-01-16T23:57:50.450Z,2.90
